KMPO

Pocono Mountains Municipal Airport

Mount Pocono, Pennsylvania, USA
METAR KMPO 232153Z AUTO 15006KT 10SM OVC003 00/00 A3027 RMK AO2 FZRAE48 SLP273 P0008 I1002 T00000000
Observed Flight Rules
Feb-23 @ 21:53 UTC (43 minutes ago) Instrument Flight Rules
Wind Visibility Clouds
150° at 6 knots 10 miles
  • Overcast at 300' AGL
Temperatures Readings Precipitation
Current 0°C / 32°F
Dewpoint 0°C / 32°F
Humidity 100%
Altimeter 30.27" Hg
Pressure 1027.3 hPa
Elevation 577
Current Rain 0.08
METAR KMPO 232153Z AUTO 15006KT 10SM OVC003 00/00 A3027 RMK AO2 FZRAE48 SLP273 P0008 I1002 T00000000
Observed Flight Rules
Feb-23 @ 21:53 UTC
(43 minutes ago)
LIFR
Wind Visibility
150° at 6 knots 10 miles
Clouds
  • Overcast at 300' AGL
Temperature Dewpoint
0°C / 32°F 0°C / 32°F
Humidity Altimeter Pressure
100% 30.27" Hg 1027.3 hPa
Current Rain
0.08